Hauptseite
METAR-TAF:

METAR-TAF

Flughäfen :

Flughafen Bukarest Henri Coandă

Bukarest, Rumänien

Breite: 44-33N, Länge: 026-06E, Höhe: 95 m

Beobachtung

Neuester Wetterbericht von vor 10 Minuten, um 03:30 UTC
Wind 5 kt aus Nord/Nordost
Temperatur 15°C
Luftfeuchtigkeit 67%
Luftdruck 1017 hPa
Sichtweite 10 km oder mehr
keine Wolken unter 1500 m und keine Kumulonimbus oder Gewitterwolken

METAR: LROP 240330Z 03005KT CAVOK 15/09 Q1017 NOSIG

Zeit: 06:40 (03:40 UTC)

Prognose

Neuester Wetterbericht von vor 4 Stunden und 40 Minuten, um 23:00 UTC
Gültige Prognose vom 24 um 00 UTC bis 24 um 24 UTC
Wind 6 kt aus Ost/Nordost
Sichtweite 10 km oder mehr
Aufgelockert bewölkt in der Höhe von 3000 ft
Zeitweise
vom 24 um 00 UTC bis 24 um 04 UTC
Sichtweite: 3000 m
feuchter Dunst

TAF: LROP 232300Z 2400/2424 06006KT 9999 SCT030 TEMPO 2400/2404 3000 BR

Wetterbeobachtungen und Prognosen von mehr als 4000 Flughäfen (METAR und TAF Bericht).

Die verfügbaren Stationen werden durch gelbe und rote Markierungen auf der Karte dargestellt.

Führen Sie die Maus auf sie, um den Namen der Station zu sehen.

Darauf klicken, um die Beobachtung von Wetterbeobachtungen und Prognosen zu sehen.

Um die Karte zu ändern : klicken Sie auf den grünen Tasten mit einem schwarzen Kreuz Zum Vergrößern, auf den grünen Button mit einem Gedankenstrich zu verkleinern, oder auf die grünen Pfeile für benachbarte Karten.


METAR-TAF: